sensor_id;sensor_type;location;lat;lon;timestamp;pressure;altitude;pressure_sealevel;temperature;humidity
10940;BME280;5522;42.696;23.494;2023-11-19T00:01:46;53799.53;;;-139.68;100.00
10940;BME280;5522;42.696;23.494;2023-11-19T00:04:13;53829.69;;;-139.68;100.00
10940;BME280;5522;42.696;23.494;2023-11-19T00:06:40;53795.50;;;-139.68;100.00
10940;BME280;5522;42.696;23.494;2023-11-19T00:09:07;53859.84;;;-139.68;100.00
10940;BME280;5522;42.696;23.494;2023-11-19T00:11:34;53859.84;;;-139.68;100.00
10940;BME280;5522;42.696;23.494;2023-11-19T00:14:03;53807.56;;;-139.68;100.00
10940;BME280;5522;42.696;23.494;2023-11-19T00:16:33;53835.72;;;-139.68;100.00
10940;BME280;5522;42.696;23.494;2023-11-19T00:19:00;53819.63;;;-139.68;100.00
10940;BME280;5522;42.696;23.494;2023-11-19T00:21:27;53821.66;;;-139.68;100.00
10940;BME280;5522;42.696;23.494;2023-11-19T00:23:56;53799.53;;;-139.68;100.00
10940;BME280;5522;42.696;23.494;2023-11-19T00:26:23;53849.78;;;-139.68;100.00
10940;BME280;5522;42.696;23.494;2023-11-19T00:28:50;53793.50;;;-139.68;100.00
10940;BME280;5522;42.696;23.494;2023-11-19T00:31:19;53815.63;;;-139.68;100.00
10940;BME280;5522;42.696;23.494;2023-11-19T00:33:46;53803.56;;;-139.68;100.00
10940;BME280;5522;42.696;23.494;2023-11-19T00:36:13;53837.72;;;-139.68;100.00
10940;BME280;5522;42.696;23.494;2023-11-19T00:38:40;53811.59;;;-139.68;100.00
10940;BME280;5522;42.696;23.494;2023-11-19T00:41:06;53813.59;;;-139.68;100.00
10940;BME280;5522;42.696;23.494;2023-11-19T00:43:33;53823.66;;;-139.68;100.00
10940;BME280;5522;42.696;23.494;2023-11-19T00:46:01;53807.56;;;-139.68;100.00
10940;BME280;5522;42.696;23.494;2023-11-19T00:48:30;53791.50;;;-139.68;100.00
10940;BME280;5522;42.696;23.494;2023-11-19T00:50:57;53839.75;;;-139.68;100.00
10940;BME280;5522;42.696;23.494;2023-11-19T00:53:24;53817.63;;;-139.68;100.00
10940;BME280;5522;42.696;23.494;2023-11-19T00:55:52;53805.56;;;-139.68;100.00
10940;BME280;5522;42.696;23.494;2023-11-19T00:58:19;53817.63;;;-139.68;100.00
10940;BME280;5522;42.696;23.494;2023-11-19T01:00:45;53803.56;;;-139.68;100.00
10940;BME280;5522;42.696;23.494;2023-11-19T01:03:13;53815.63;;;-139.68;100.00
10940;BME280;5522;42.696;23.494;2023-11-19T01:05:42;53819.63;;;-139.68;100.00
10940;BME280;5522;42.696;23.494;2023-11-19T01:08:10;53779.44;;;-139.68;100.00
10940;BME280;5522;42.696;23.494;2023-11-19T01:10:37;53765.34;;;-139.68;100.00
10940;BME280;5522;42.696;23.494;2023-11-19T01:13:04;53821.66;;;-139.68;100.00
10940;BME280;5522;42.696;23.494;2023-11-19T01:15:32;53839.75;;;-139.68;100.00
10940;BME280;5522;42.696;23.494;2023-11-19T01:17:59;53841.75;;;-139.68;100.00
10940;BME280;5522;42.696;23.494;2023-11-19T01:23:04;53801.53;;;-139.68;100.00
10940;BME280;5522;42.696;23.494;2023-11-19T01:25:31;53837.72;;;-139.68;100.00
10940;BME280;5522;42.696;23.494;2023-11-19T01:27:57;53803.56;;;-139.68;100.00
10940;BME280;5522;42.696;23.494;2023-11-19T01:30:24;53805.56;;;-139.68;100.00
10940;BME280;5522;42.696;23.494;2023-11-19T01:32:51;53839.75;;;-139.68;100.00
10940;BME280;5522;42.696;23.494;2023-11-19T01:35:18;53829.69;;;-139.68;100.00
10940;BME280;5522;42.696;23.494;2023-11-19T01:37:45;53763.34;;;-139.68;100.00
10940;BME280;5522;42.696;23.494;2023-11-19T01:40:14;53829.69;;;-139.68;100.00
10940;BME280;5522;42.696;23.494;2023-11-19T01:42:44;53823.66;;;-139.68;100.00
10940;BME280;5522;42.696;23.494;2023-11-19T01:45:22;53815.63;;;-139.68;100.00
10940;BME280;5522;42.696;23.494;2023-11-19T01:47:50;53807.56;;;-139.68;100.00
10940;BME280;5522;42.696;23.494;2023-11-19T01:50:17;53819.63;;;-139.68;100.00
10940;BME280;5522;42.696;23.494;2023-11-19T01:52:45;53803.56;;;-139.68;100.00
10940;BME280;5522;42.696;23.494;2023-11-19T01:55:14;53781.44;;;-139.68;100.00
10940;BME280;5522;42.696;23.494;2023-11-19T01:57:41;53835.72;;;-139.68;100.00
10940;BME280;5522;42.696;23.494;2023-11-19T02:00:09;53825.66;;;-139.68;100.00
10940;BME280;5522;42.696;23.494;2023-11-19T02:02:37;53851.81;;;-139.68;100.00
10940;BME280;5522;42.696;23.494;2023-11-19T02:05:05;53803.56;;;-139.68;100.00
10940;BME280;5522;42.696;23.494;2023-11-19T02:07:32;53787.47;;;-139.68;100.00
10940;BME280;5522;42.696;23.494;2023-11-19T02:09:59;53837.72;;;-139.68;100.00
10940;BME280;5522;42.696;23.494;2023-11-19T02:12:29;53807.56;;;-139.68;100.00
10940;BME280;5522;42.696;23.494;2023-11-19T02:14:57;53831.69;;;-139.68;100.00
10940;BME280;5522;42.696;23.494;2023-11-19T02:17:28;53827.69;;;-139.68;100.00
10940;BME280;5522;42.696;23.494;2023-11-19T02:19:56;53843.75;;;-139.68;100.00
10940;BME280;5522;42.696;23.494;2023-11-19T02:22:24;53835.72;;;-139.68;100.00
10940;BME280;5522;42.696;23.494;2023-11-19T02:24:53;53791.50;;;-139.68;100.00
10940;BME280;5522;42.696;23.494;2023-11-19T02:27:26;53843.75;;;-139.68;100.00
10940;BME280;5522;42.696;23.494;2023-11-19T02:29:58;53819.63;;;-139.68;100.00
10940;BME280;5522;42.696;23.494;2023-11-19T02:32:27;53821.66;;;-139.68;100.00
10940;BME280;5522;42.696;23.494;2023-11-19T02:34:56;53793.50;;;-139.68;100.00
10940;BME280;5522;42.696;23.494;2023-11-19T02:37:23;53837.72;;;-139.68;100.00
10940;BME280;5522;42.696;23.494;2023-11-19T02:39:49;53831.69;;;-139.68;100.00
10940;BME280;5522;42.696;23.494;2023-11-19T02:42:16;53831.69;;;-139.68;100.00
10940;BME280;5522;42.696;23.494;2023-11-19T02:44:44;53827.69;;;-139.68;100.00
10940;BME280;5522;42.696;23.494;2023-11-19T02:47:12;53809.59;;;-139.68;100.00
10940;BME280;5522;42.696;23.494;2023-11-19T02:49:39;53799.53;;;-139.68;100.00
10940;BME280;5522;42.696;23.494;2023-11-19T02:52:07;53827.69;;;-139.68;100.00
10940;BME280;5522;42.696;23.494;2023-11-19T02:54:36;53809.59;;;-139.68;100.00
10940;BME280;5522;42.696;23.494;2023-11-19T02:57:03;53827.69;;;-139.68;100.00
10940;BME280;5522;42.696;23.494;2023-11-19T02:59:30;53805.56;;;-139.68;100.00
10940;BME280;5522;42.696;23.494;2023-11-19T03:02:04;53753.28;;;-139.68;100.00
10940;BME280;5522;42.696;23.494;2023-11-19T03:04:33;53791.50;;;-139.68;100.00
10940;BME280;5522;42.696;23.494;2023-11-19T03:07:00;53817.63;;;-139.68;100.00
10940;BME280;5522;42.696;23.494;2023-11-19T03:09:27;53779.44;;;-139.68;100.00
10940;BME280;5522;42.696;23.494;2023-11-19T03:11:55;53821.66;;;-139.68;100.00
10940;BME280;5522;42.696;23.494;2023-11-19T03:14:21;53823.66;;;-139.68;100.00
10940;BME280;5522;42.696;23.494;2023-11-19T03:16:49;53819.63;;;-139.68;100.00
10940;BME280;5522;42.696;23.494;2023-11-19T03:19:16;53767.38;;;-139.68;100.00
10940;BME280;5522;42.696;23.494;2023-11-19T03:21:44;53835.72;;;-139.68;100.00
10940;BME280;5522;42.696;23.494;2023-11-19T03:24:13;53833.72;;;-139.68;100.00
10940;BME280;5522;42.696;23.494;2023-11-19T03:26:41;53801.53;;;-139.68;100.00
10940;BME280;5522;42.696;23.494;2023-11-19T03:29:08;53819.63;;;-139.68;100.00
10940;BME280;5522;42.696;23.494;2023-11-19T03:31:35;53787.47;;;-139.68;100.00
10940;BME280;5522;42.696;23.494;2023-11-19T03:34:02;53763.34;;;-139.68;100.00
10940;BME280;5522;42.696;23.494;2023-11-19T03:36:32;53799.53;;;-139.68;100.00
10940;BME280;5522;42.696;23.494;2023-11-19T03:39:00;53815.63;;;-139.68;100.00
10940;BME280;5522;42.696;23.494;2023-11-19T03:41:28;53843.75;;;-139.68;100.00
10940;BME280;5522;42.696;23.494;2023-11-19T03:43:56;53807.56;;;-139.68;100.00
10940;BME280;5522;42.696;23.494;2023-11-19T03:46:22;53815.63;;;-139.68;100.00
10940;BME280;5522;42.696;23.494;2023-11-19T03:48:50;53799.53;;;-139.68;100.00
10940;BME280;5522;42.696;23.494;2023-11-19T03:51:16;53845.78;;;-139.68;100.00
10940;BME280;5522;42.696;23.494;2023-11-19T03:53:43;53791.50;;;-139.68;100.00
10940;BME280;5522;42.696;23.494;2023-11-19T03:56:12;53799.53;;;-139.68;100.00
10940;BME280;5522;42.696;23.494;2023-11-19T03:58:39;53815.63;;;-139.68;100.00
10940;BME280;5522;42.696;23.494;2023-11-19T04:01:10;53823.66;;;-139.68;100.00
10940;BME280;5522;42.696;23.494;2023-11-19T04:03:38;53833.72;;;-139.68;100.00
10940;BME280;5522;42.696;23.494;2023-11-19T04:06:05;53775.41;;;-139.68;100.00
10940;BME280;5522;42.696;23.494;2023-11-19T04:08:32;53811.59;;;-139.68;100.00
10940;BME280;5522;42.696;23.494;2023-11-19T04:11:00;53821.66;;;-139.68;100.00
10940;BME280;5522;42.696;23.494;2023-11-19T04:13:28;53799.53;;;-139.68;100.00
10940;BME280;5522;42.696;23.494;2023-11-19T04:15:55;53817.63;;;-139.68;100.00
10940;BME280;5522;42.696;23.494;2023-11-19T04:18:22;53803.56;;;-139.68;100.00
10940;BME280;5522;42.696;23.494;2023-11-19T04:20:49;53829.69;;;-139.68;100.00
10940;BME280;5522;42.696;23.494;2023-11-19T04:23:16;53829.69;;;-139.68;100.00
10940;BME280;5522;42.696;23.494;2023-11-19T04:25:43;53819.63;;;-139.68;100.00
10940;BME280;5522;42.696;23.494;2023-11-19T04:28:10;53843.75;;;-139.68;100.00
10940;BME280;5522;42.696;23.494;2023-11-19T04:30:38;53849.78;;;-139.68;100.00
10940;BME280;5522;42.696;23.494;2023-11-19T04:33:05;53821.66;;;-139.68;100.00
10940;BME280;5522;42.696;23.494;2023-11-19T04:35:31;53827.69;;;-139.68;100.00
10940;BME280;5522;42.696;23.494;2023-11-19T04:37:58;53831.69;;;-139.68;100.00
10940;BME280;5522;42.696;23.494;2023-11-19T04:40:25;53815.63;;;-139.68;100.00
10940;BME280;5522;42.696;23.494;2023-11-19T04:42:52;53817.63;;;-139.68;100.00
10940;BME280;5522;42.696;23.494;2023-11-19T04:45:22;53809.59;;;-139.68;100.00
10940;BME280;5522;42.696;23.494;2023-11-19T04:47:50;53803.56;;;-139.68;100.00
10940;BME280;5522;42.696;23.494;2023-11-19T04:50:17;53845.78;;;-139.68;100.00
10940;BME280;5522;42.696;23.494;2023-11-19T04:52:44;53803.56;;;-139.68;100.00
10940;BME280;5522;42.696;23.494;2023-11-19T04:55:12;53811.59;;;-139.68;100.00
10940;BME280;5522;42.696;23.494;2023-11-19T04:57:39;53793.50;;;-139.68;100.00
10940;BME280;5522;42.696;23.494;2023-11-19T05:00:07;53775.41;;;-139.68;100.00
10940;BME280;5522;42.696;23.494;2023-11-19T05:02:36;53815.63;;;-139.68;100.00
10940;BME280;5522;42.696;23.494;2023-11-19T05:05:05;53839.75;;;-139.68;100.00
10940;BME280;5522;42.696;23.494;2023-11-19T05:07:32;53821.66;;;-139.68;100.00
10940;BME280;5522;42.696;23.494;2023-11-19T05:09:59;53821.66;;;-139.68;100.00
10940;BME280;5522;42.696;23.494;2023-11-19T05:12:26;53799.53;;;-139.68;100.00
10940;BME280;5522;42.696;23.494;2023-11-19T05:14:53;53819.63;;;-139.68;100.00
10940;BME280;5522;42.696;23.494;2023-11-19T05:17:20;53791.50;;;-139.68;100.00
10940;BME280;5522;42.696;23.494;2023-11-19T05:19:47;53799.53;;;-139.68;100.00
10940;BME280;5522;42.696;23.494;2023-11-19T05:22:15;53783.44;;;-139.68;100.00
10940;BME280;5522;42.696;23.494;2023-11-19T05:24:42;53823.66;;;-139.68;100.00
10940;BME280;5522;42.696;23.494;2023-11-19T05:27:08;53795.50;;;-139.68;100.00
10940;BME280;5522;42.696;23.494;2023-11-19T05:29:36;53807.56;;;-139.68;100.00
10940;BME280;5522;42.696;23.494;2023-11-19T05:32:04;53817.63;;;-139.68;100.00
10940;BME280;5522;42.696;23.494;2023-11-19T05:34:33;53807.56;;;-139.68;100.00
10940;BME280;5522;42.696;23.494;2023-11-19T05:37:00;53779.44;;;-139.68;100.00
10940;BME280;5522;42.696;23.494;2023-11-19T05:39:29;53811.59;;;-139.68;100.00
10940;BME280;5522;42.696;23.494;2023-11-19T05:41:55;53827.69;;;-139.68;100.00
10940;BME280;5522;42.696;23.494;2023-11-19T05:44:22;53859.84;;;-139.68;100.00
10940;BME280;5522;42.696;23.494;2023-11-19T05:46:49;53763.34;;;-139.68;100.00
10940;BME280;5522;42.696;23.494;2023-11-19T05:49:16;53815.63;;;-139.68;100.00
10940;BME280;5522;42.696;23.494;2023-11-19T05:51:43;53793.50;;;-139.68;100.00
10940;BME280;5522;42.696;23.494;2023-11-19T05:54:11;53811.59;;;-139.68;100.00
10940;BME280;5522;42.696;23.494;2023-11-19T05:56:40;53803.56;;;-139.68;100.00
10940;BME280;5522;42.696;23.494;2023-11-19T05:59:07;53843.75;;;-139.68;100.00
10940;BME280;5522;42.696;23.494;2023-11-19T06:01:40;53843.75;;;-139.68;100.00
10940;BME280;5522;42.696;23.494;2023-11-19T06:04:08;53781.44;;;-139.68;100.00
10940;BME280;5522;42.696;23.494;2023-11-19T06:06:35;53835.72;;;-139.68;100.00
10940;BME280;5522;42.696;23.494;2023-11-19T06:09:02;53801.53;;;-139.68;100.00
10940;BME280;5522;42.696;23.494;2023-11-19T06:11:32;53801.53;;;-139.68;100.00
10940;BME280;5522;42.696;23.494;2023-11-19T06:14:00;53763.34;;;-139.68;100.00
10940;BME280;5522;42.696;23.494;2023-11-19T06:16:27;53827.69;;;-139.68;100.00
10940;BME280;5522;42.696;23.494;2023-11-19T06:18:54;53819.63;;;-139.68;100.00
10940;BME280;5522;42.696;23.494;2023-11-19T06:21:21;53829.69;;;-139.68;100.00
10940;BME280;5522;42.696;23.494;2023-11-19T06:23:48;53837.72;;;-139.68;100.00
10940;BME280;5522;42.696;23.494;2023-11-19T06:26:17;53823.66;;;-139.68;100.00
10940;BME280;5522;42.696;23.494;2023-11-19T06:28:43;53795.50;;;-139.68;100.00
10940;BME280;5522;42.696;23.494;2023-11-19T06:31:13;53809.59;;;-139.68;100.00
10940;BME280;5522;42.696;23.494;2023-11-19T06:33:41;53803.56;;;-139.68;100.00
10940;BME280;5522;42.696;23.494;2023-11-19T06:36:08;53803.56;;;-139.68;100.00
10940;BME280;5522;42.696;23.494;2023-11-19T06:38:35;53795.50;;;-139.68;100.00
10940;BME280;5522;42.696;23.494;2023-11-19T06:41:07;53799.53;;;-139.68;100.00
10940;BME280;5522;42.696;23.494;2023-11-19T06:43:34;53801.53;;;-139.68;100.00
10940;BME280;5522;42.696;23.494;2023-11-19T06:46:00;53845.78;;;-139.68;100.00
10940;BME280;5522;42.696;23.494;2023-11-19T06:48:29;53819.63;;;-139.68;100.00
10940;BME280;5522;42.696;23.494;2023-11-19T06:50:57;53803.56;;;-139.68;100.00
10940;BME280;5522;42.696;23.494;2023-11-19T06:53:24;53809.59;;;-139.68;100.00
10940;BME280;5522;42.696;23.494;2023-11-19T06:55:53;53857.84;;;-139.68;100.00
10940;BME280;5522;42.696;23.494;2023-11-19T06:58:20;53829.69;;;-139.68;100.00
10940;BME280;5522;42.696;23.494;2023-11-19T07:00:46;53837.72;;;-139.68;100.00
10940;BME280;5522;42.696;23.494;2023-11-19T07:03:15;53811.59;;;-139.68;100.00
10940;BME280;5522;42.696;23.494;2023-11-19T07:05:43;53791.50;;;-139.68;100.00
10940;BME280;5522;42.696;23.494;2023-11-19T07:08:10;53787.47;;;-139.68;100.00
10940;BME280;5522;42.696;23.494;2023-11-19T07:10:36;53783.44;;;-139.68;100.00
10940;BME280;5522;42.696;23.494;2023-11-19T07:13:04;53833.72;;;-139.68;100.00
10940;BME280;5522;42.696;23.494;2023-11-19T07:15:31;53777.41;;;-139.68;100.00
10940;BME280;5522;42.696;23.494;2023-11-19T07:17:59;53821.66;;;-139.68;100.00
10940;BME280;5522;42.696;23.494;2023-11-19T07:20:28;53821.66;;;-139.68;100.00
10940;BME280;5522;42.696;23.494;2023-11-19T07:23:00;53819.63;;;-139.68;100.00
10940;BME280;5522;42.696;23.494;2023-11-19T07:25:28;53829.69;;;-139.68;100.00
10940;BME280;5522;42.696;23.494;2023-11-19T07:27:54;53839.75;;;-139.68;100.00
10940;BME280;5522;42.696;23.494;2023-11-19T07:30:22;53811.59;;;-139.68;100.00
10940;BME280;5522;42.696;23.494;2023-11-19T07:32:49;53827.69;;;-139.68;100.00
10940;BME280;5522;42.696;23.494;2023-11-19T07:35:16;53809.59;;;-139.68;100.00
10940;BME280;5522;42.696;23.494;2023-11-19T07:37:44;53791.50;;;-139.68;100.00
10940;BME280;5522;42.696;23.494;2023-11-19T07:40:13;53795.50;;;-139.68;100.00
10940;BME280;5522;42.696;23.494;2023-11-19T07:42:40;53767.38;;;-139.68;100.00
10940;BME280;5522;42.696;23.494;2023-11-19T07:45:07;53767.38;;;-139.68;100.00
10940;BME280;5522;42.696;23.494;2023-11-19T07:47:34;53783.44;;;-139.68;100.00
10940;BME280;5522;42.696;23.494;2023-11-19T07:50:01;53813.59;;;-139.68;100.00
10940;BME280;5522;42.696;23.494;2023-11-19T07:52:28;53791.50;;;-139.68;100.00
10940;BME280;5522;42.696;23.494;2023-11-19T07:54:55;53783.44;;;-139.68;100.00
10940;BME280;5522;42.696;23.494;2023-11-19T07:57:23;53807.56;;;-139.68;100.00
10940;BME280;5522;42.696;23.494;2023-11-19T07:59:54;53831.69;;;-139.68;100.00
10940;BME280;5522;42.696;23.494;2023-11-19T08:02:24;53843.75;;;-139.68;100.00
10940;BME280;5522;42.696;23.494;2023-11-19T08:04:50;53791.50;;;-139.68;100.00
10940;BME280;5522;42.696;23.494;2023-11-19T08:07:20;53835.72;;;-139.68;100.00
10940;BME280;5522;42.696;23.494;2023-11-19T08:09:47;53803.56;;;-139.68;100.00
10940;BME280;5522;42.696;23.494;2023-11-19T08:12:14;53803.56;;;-139.68;100.00
10940;BME280;5522;42.696;23.494;2023-11-19T08:14:44;53791.50;;;-139.68;100.00
10940;BME280;5522;42.696;23.494;2023-11-19T08:17:11;53775.41;;;-139.68;100.00
10940;BME280;5522;42.696;23.494;2023-11-19T08:19:39;53811.59;;;-139.68;100.00
10940;BME280;5522;42.696;23.494;2023-11-19T08:22:06;53813.59;;;-139.68;100.00
10940;BME280;5522;42.696;23.494;2023-11-19T08:24:34;53855.81;;;-139.68;100.00
10940;BME280;5522;42.696;23.494;2023-11-19T08:27:01;53829.69;;;-139.68;100.00
10940;BME280;5522;42.696;23.494;2023-11-19T08:29:28;53839.75;;;-139.68;87.39
10940;BME280;5522;42.696;23.494;2023-11-19T08:31:56;53827.69;;;-139.68;68.30
10940;BME280;5522;42.696;23.494;2023-11-19T08:34:23;53851.81;;;-139.68;52.42
10940;BME280;5522;42.696;23.494;2023-11-19T08:36:50;53920.16;;;-139.68;45.81
10940;BME280;5522;42.696;23.494;2023-11-19T08:39:18;53896.03;;;-139.68;41.25
10940;BME280;5522;42.696;23.494;2023-11-19T08:41:46;53912.13;;;-139.68;38.91
10940;BME280;5522;42.696;23.494;2023-11-19T08:44:13;53910.09;;;-139.68;38.43
10940;BME280;5522;42.696;23.494;2023-11-19T08:46:46;53896.03;;;-139.68;41.11
10940;BME280;5522;42.696;23.494;2023-11-19T08:49:15;53883.97;;;-139.68;43.25
10940;BME280;5522;42.696;23.494;2023-11-19T08:51:42;53892.00;;;-139.68;47.59
10940;BME280;5522;42.696;23.494;2023-11-19T08:54:09;53890.00;;;-139.68;52.99
10940;BME280;5522;42.696;23.494;2023-11-19T08:56:36;53861.84;;;-139.68;62.87
10940;BME280;5522;42.696;23.494;2023-11-19T08:59:04;53861.84;;;-139.68;69.66
10940;BME280;5522;42.696;23.494;2023-11-19T09:01:31;53888.00;;;-139.68;71.18
10940;BME280;5522;42.696;23.494;2023-11-19T09:03:58;53855.81;;;-139.68;74.17
10940;BME280;5522;42.696;23.494;2023-11-19T09:06:26;53863.88;;;-139.68;78.12
10940;BME280;5522;42.696;23.494;2023-11-19T09:08:53;53849.78;;;-139.68;78.70
10940;BME280;5522;42.696;23.494;2023-11-19T09:11:23;53871.91;;;-139.68;80.84
10940;BME280;5522;42.696;23.494;2023-11-19T09:13:50;53879.94;;;-139.68;82.40
10940;BME280;5522;42.696;23.494;2023-11-19T09:16:17;53867.88;;;-139.68;81.50
10940;BME280;5522;42.696;23.494;2023-11-19T09:18:44;53841.75;;;-139.68;85.20
10940;BME280;5522;42.696;23.494;2023-11-19T09:21:11;53881.97;;;-139.68;86.23
10940;BME280;5522;42.696;23.494;2023-11-19T09:23:39;53885.97;;;-139.68;82.75
10940;BME280;5522;42.696;23.494;2023-11-19T09:26:08;53879.94;;;-139.68;81.68
10940;BME280;5522;42.696;23.494;2023-11-19T09:28:35;53875.94;;;-139.68;79.30
10940;BME280;5522;42.696;23.494;2023-11-19T09:31:02;53859.84;;;-139.68;78.01
10940;BME280;5522;42.696;23.494;2023-11-19T09:33:30;53851.81;;;-139.68;72.46
10940;BME280;5522;42.696;23.494;2023-11-19T09:35:57;53849.78;;;-139.68;56.14
10940;BME280;5522;42.696;23.494;2023-11-19T09:38:23;53918.16;;;-139.68;48.88
10940;BME280;5522;42.696;23.494;2023-11-19T09:40:53;53888.00;;;-139.68;42.25
10940;BME280;5522;42.696;23.494;2023-11-19T09:43:27;53900.06;;;-139.68;39.14
10940;BME280;5522;42.696;23.494;2023-11-19T09:45:54;53918.16;;;-139.68;36.73
10940;BME280;5522;42.696;23.494;2023-11-19T09:48:24;53956.34;;;-139.68;34.66
10940;BME280;5522;42.696;23.494;2023-11-19T09:50:51;53952.31;;;-139.68;37.28
10940;BME280;5522;42.696;23.494;2023-11-19T09:53:19;53916.13;;;-139.68;39.88
10940;BME280;5522;42.696;23.494;2023-11-19T09:55:46;53932.22;;;-139.68;42.56
10940;BME280;5522;42.696;23.494;2023-11-19T09:58:15;53902.06;;;-139.68;47.26
10940;BME280;5522;42.696;23.494;2023-11-19T10:00:42;53918.16;;;-139.68;53.78
10940;BME280;5522;42.696;23.494;2023-11-19T10:03:11;53859.84;;;-139.68;59.80
10940;BME280;5522;42.696;23.494;2023-11-19T10:05:38;53906.06;;;-139.68;63.22
10940;BME280;5522;42.696;23.494;2023-11-19T10:08:06;53932.22;;;-139.68;66.90
10940;BME280;5522;42.696;23.494;2023-11-19T10:10:33;53908.09;;;-139.68;68.04
10940;BME280;5522;42.696;23.494;2023-11-19T10:13:00;53910.09;;;-139.68;75.62
10940;BME280;5522;42.696;23.494;2023-11-19T10:15:35;53867.88;;;-139.68;75.38
10940;BME280;5522;42.696;23.494;2023-11-19T10:18:04;53877.94;;;-139.68;74.78
10940;BME280;5522;42.696;23.494;2023-11-19T10:20:36;53888.00;;;-139.68;78.11
10940;BME280;5522;42.696;23.494;2023-11-19T10:23:06;53902.06;;;-139.68;75.78
10940;BME280;5522;42.696;23.494;2023-11-19T10:25:33;53863.88;;;-139.68;75.42
10940;BME280;5522;42.696;23.494;2023-11-19T10:28:02;53863.88;;;-139.68;73.62
10940;BME280;5522;42.696;23.494;2023-11-19T10:30:37;53902.06;;;-139.68;73.46
10940;BME280;5522;42.696;23.494;2023-11-19T10:33:08;53892.00;;;-139.68;74.59
10940;BME280;5522;42.696;23.494;2023-11-19T10:35:36;53912.13;;;-139.68;73.18
10940;BME280;5522;42.696;23.494;2023-11-19T10:38:13;53916.13;;;-139.68;76.86
10940;BME280;5522;42.696;23.494;2023-11-19T10:40:41;53875.94;;;-139.68;78.20
10940;BME280;5522;42.696;23.494;2023-11-19T10:43:08;53892.00;;;-139.68;76.36
10940;BME280;5522;42.696;23.494;2023-11-19T10:45:38;53904.06;;;-139.68;77.31
10940;BME280;5522;42.696;23.494;2023-11-19T10:48:06;53904.06;;;-139.68;68.85
10940;BME280;5522;42.696;23.494;2023-11-19T10:50:35;53908.09;;;-139.68;51.35
10940;BME280;5522;42.696;23.494;2023-11-19T10:53:06;53918.16;;;-139.68;49.06
10940;BME280;5522;42.696;23.494;2023-11-19T10:55:34;53940.25;;;-139.68;47.27
10940;BME280;5522;42.696;23.494;2023-11-19T10:58:05;53930.22;;;-139.68;48.75
10940;BME280;5522;42.696;23.494;2023-11-19T11:00:43;53890.00;;;-139.68;52.20
10940;BME280;5522;42.696;23.494;2023-11-19T11:03:18;53885.97;;;-139.68;53.48
10940;BME280;5522;42.696;23.494;2023-11-19T11:05:47;53843.75;;;-139.68;59.90
10940;BME280;5522;42.696;23.494;2023-11-19T11:08:14;53902.06;;;-139.68;61.80
10940;BME280;5522;42.696;23.494;2023-11-19T11:10:44;53892.00;;;-139.68;63.06
10940;BME280;5522;42.696;23.494;2023-11-19T11:13:13;53871.91;;;-139.68;64.41
10940;BME280;5522;42.696;23.494;2023-11-19T11:15:44;53896.03;;;-139.68;67.98
10940;BME280;5522;42.696;23.494;2023-11-19T11:18:12;53904.06;;;-139.68;68.99
10940;BME280;5522;42.696;23.494;2023-11-19T11:20:44;53898.03;;;-139.68;72.42
10940;BME280;5522;42.696;23.494;2023-11-19T11:23:27;53875.94;;;-139.68;67.57
10940;BME280;5522;42.696;23.494;2023-11-19T11:26:14;53896.03;;;-139.68;66.26
10940;BME280;5522;42.696;23.494;2023-11-19T11:28:54;53853.81;;;-139.68;66.09
10940;BME280;5522;42.696;23.494;2023-11-19T11:31:34;53904.06;;;-139.68;68.60
10940;BME280;5522;42.696;23.494;2023-11-19T11:34:21;53896.03;;;-139.68;70.61
10940;BME280;5522;42.696;23.494;2023-11-19T11:37:02;53916.13;;;-139.68;71.04
10940;BME280;5522;42.696;23.494;2023-11-19T11:39:33;53892.00;;;-139.68;69.24
10940;BME280;5522;42.696;23.494;2023-11-19T11:42:30;53853.81;;;-139.68;68.04
10940;BME280;5522;42.696;23.494;2023-11-19T11:45:02;53932.22;;;-139.68;66.40
10940;BME280;5522;42.696;23.494;2023-11-19T11:48:08;53904.06;;;-139.68;67.88
10940;BME280;5522;42.696;23.494;2023-11-19T11:50:50;53892.00;;;-139.68;63.02
10940;BME280;5522;42.696;23.494;2023-11-19T11:53:23;53885.97;;;-139.68;60.65
10940;BME280;5522;42.696;23.494;2023-11-19T11:55:57;53920.16;;;-139.68;56.57
10940;BME280;5522;42.696;23.494;2023-11-19T11:58:30;53890.00;;;-139.68;54.47
10940;BME280;5522;42.696;23.494;2023-11-19T12:01:04;53885.97;;;-139.68;54.63
10940;BME280;5522;42.696;23.494;2023-11-19T12:03:33;53875.94;;;-139.68;56.08
10940;BME280;5522;42.696;23.494;2023-11-19T12:06:00;53902.06;;;-139.68;55.64
10940;BME280;5522;42.696;23.494;2023-11-19T12:08:32;53885.97;;;-139.68;59.21
10940;BME280;5522;42.696;23.494;2023-11-19T12:11:01;53877.94;;;-139.68;61.66
10940;BME280;5522;42.696;23.494;2023-11-19T12:13:53;53881.97;;;-139.68;62.27
10940;BME280;5522;42.696;23.494;2023-11-19T12:16:23;53904.06;;;-139.68;65.17
10940;BME280;5522;42.696;23.494;2023-11-19T12:18:54;53920.16;;;-139.68;63.72
10940;BME280;5522;42.696;23.494;2023-11-19T12:21:34;53900.06;;;-139.68;63.05
10940;BME280;5522;42.696;23.494;2023-11-19T12:24:06;53888.00;;;-139.68;65.41
10940;BME280;5522;42.696;23.494;2023-11-19T12:26:38;53873.91;;;-139.68;62.82
10940;BME280;5522;42.696;23.494;2023-11-19T12:29:06;53890.00;;;-139.68;63.46
10940;BME280;5522;42.696;23.494;2023-11-19T12:31:33;53847.78;;;-139.68;65.95
10940;BME280;5522;42.696;23.494;2023-11-19T12:34:07;53867.88;;;-139.68;67.32
10940;BME280;5522;42.696;23.494;2023-11-19T12:36:38;53867.88;;;-139.68;68.86
10940;BME280;5522;42.696;23.494;2023-11-19T12:39:05;53869.91;;;-139.68;68.08
10940;BME280;5522;42.696;23.494;2023-11-19T12:41:48;53890.00;;;-139.68;71.61
10940;BME280;5522;42.696;23.494;2023-11-19T12:44:17;53883.97;;;-139.68;73.52